createdAt,value
2019-03-27T00:03:59.669Z,16.73
2019-03-27T00:09:05.622Z,19.00
2019-03-27T00:14:10.962Z,24.30
2019-03-27T00:19:16.273Z,26.53
2019-03-27T00:24:21.754Z,20.23
2019-03-27T00:29:26.732Z,14.90
2019-03-27T00:34:31.656Z,17.20
2019-03-27T00:39:36.708Z,15.80
2019-03-27T00:44:41.791Z,15.73
2019-03-27T00:49:46.796Z,19.27
2019-03-27T00:54:51.742Z,23.77
2019-03-27T00:59:56.635Z,29.23
2019-03-27T01:05:01.590Z,26.60
2019-03-27T01:10:06.706Z,23.87
2019-03-27T01:15:12.311Z,22.73
2019-03-27T01:20:17.797Z,18.20
2019-03-27T01:25:23.178Z,19.70
2019-03-27T01:30:28.360Z,22.53
2019-03-27T01:35:53.072Z,17.50
2019-03-27T01:40:58.685Z,14.37
2019-03-27T01:46:04.214Z,14.00
2019-03-27T01:51:09.540Z,19.80
2019-03-27T01:56:33.949Z,16.73
2019-03-27T02:01:39.106Z,18.87
2019-03-27T02:06:44.043Z,19.17
2019-03-27T02:11:49.162Z,19.03
2019-03-27T02:16:54.375Z,21.97
2019-03-27T02:22:00.218Z,22.87
2019-03-27T02:27:24.688Z,26.87
2019-03-27T02:32:29.774Z,23.90
2019-03-27T02:37:34.676Z,25.90
2019-03-27T02:42:39.825Z,31.03
2019-03-27T02:47:44.953Z,22.03
2019-03-27T02:53:09.336Z,29.80
2019-03-27T02:58:17.749Z,25.30
2019-03-27T03:03:22.871Z,26.17
2019-03-27T03:08:28.467Z,22.27
2019-03-27T03:13:33.581Z,26.87
2019-03-27T03:18:38.873Z,28.63
2019-03-27T03:23:43.982Z,23.87
2019-03-27T03:28:49.055Z,24.27
2019-03-27T03:33:54.310Z,21.63
2019-03-27T03:38:59.470Z,27.67
2019-03-27T03:44:04.618Z,28.23
2019-03-27T03:49:09.739Z,23.87
2019-03-27T03:54:15.140Z,25.83
2019-03-27T03:59:22.551Z,29.10
2019-03-27T04:04:29.027Z,25.77
2019-03-27T04:09:34.173Z,27.17
2019-03-27T04:14:39.125Z,31.40
2019-03-27T04:19:44.232Z,35.23
2019-03-27T04:24:49.381Z,32.13
2019-03-27T04:30:15.422Z,74.73
2019-03-27T04:35:20.540Z,63.20
2019-03-27T04:40:25.818Z,56.27
2019-03-27T04:45:30.986Z,41.60
2019-03-27T04:50:36.159Z,41.17
2019-03-27T04:55:41.265Z,38.03
2019-03-27T05:00:46.395Z,38.10
2019-03-27T05:05:51.571Z,42.17
2019-03-27T05:10:56.790Z,39.13
2019-03-27T05:16:02.395Z,48.27
2019-03-27T05:21:07.779Z,37.20
2019-03-27T05:26:12.800Z,40.50
2019-03-27T05:31:17.914Z,44.17
2019-03-27T05:36:22.882Z,53.93
2019-03-27T05:41:28.079Z,50.67
2019-03-27T05:46:33.280Z,49.30
2019-03-27T05:51:38.715Z,64.47
2019-03-27T05:56:43.899Z,58.37
2019-03-27T06:01:49.099Z,68.33
2019-03-27T06:06:54.075Z,64.10
2019-03-27T06:11:59.359Z,77.40
2019-03-27T06:17:04.450Z,68.20
2019-03-27T06:22:09.667Z,77.77
2019-03-27T06:27:14.850Z,79.17
2019-03-27T06:32:20.019Z,71.67
2019-03-27T06:37:25.199Z,68.77
2019-03-27T06:42:30.557Z,55.97
2019-03-27T06:47:35.925Z,44.30
2019-03-27T06:52:41.310Z,54.90
2019-03-27T06:57:46.725Z,44.50
2019-03-27T07:03:11.090Z,31.70
2019-03-27T07:08:16.007Z,29.77
2019-03-27T07:13:21.326Z,33.60
2019-03-27T07:18:39.184Z,20.93
2019-03-27T07:23:33.237Z,31.17
2019-03-27T07:28:38.705Z,21.77
2019-03-27T07:33:43.940Z,21.17
2019-03-27T07:39:11.359Z,16.07
2019-03-27T07:44:14.624Z,16.00
2019-03-27T07:49:19.708Z,14.73
2019-03-27T07:54:24.648Z,13.90
2019-03-27T07:59:29.790Z,19.20
2019-03-27T08:04:35.355Z,16.63
2019-03-27T08:09:40.475Z,23.90
2019-03-27T08:15:06.016Z,14.83
2019-03-27T08:20:11.998Z,20.37
2019-03-27T08:25:17.331Z,19.73
2019-03-27T08:30:22.589Z,19.80
2019-03-27T08:35:27.530Z,14.60
2019-03-27T08:40:32.639Z,13.70
2019-03-27T08:45:37.605Z,15.40
2019-03-27T08:50:42.903Z,13.23
2019-03-27T08:55:48.039Z,14.63
2019-03-27T09:00:54.545Z,15.23
2019-03-27T09:06:32.785Z,13.63
2019-03-27T09:11:25.856Z,13.17
2019-03-27T09:16:31.072Z,11.70
2019-03-27T09:21:36.218Z,10.67
2019-03-27T09:26:41.489Z,10.70
2019-03-27T09:31:46.662Z,7.50
2019-03-27T09:36:51.842Z,9.53
2019-03-27T09:41:56.971Z,15.10
2019-03-27T09:47:02.094Z,8.67
2019-03-27T09:52:07.020Z,5.40
2019-03-27T09:57:12.140Z,6.27
2019-03-27T10:02:17.313Z,6.53
2019-03-27T10:07:22.408Z,7.27
2019-03-27T10:12:27.409Z,6.23
2019-03-27T10:17:32.510Z,5.17
2019-03-27T10:22:37.458Z,8.20
2019-03-27T10:27:42.411Z,9.37
2019-03-27T10:32:47.522Z,9.93
2019-03-27T10:37:52.672Z,9.20
2019-03-27T10:42:57.652Z,6.13
2019-03-27T10:48:02.748Z,8.50
2019-03-27T10:53:07.850Z,7.87
2019-03-27T10:58:13.307Z,4.87
2019-03-27T11:03:18.252Z,5.10
2019-03-27T11:08:23.380Z,6.97
2019-03-27T11:13:28.509Z,5.73
2019-03-27T11:18:41.028Z,4.33
2019-03-27T11:24:47.563Z,5.07
2019-03-27T11:29:52.647Z,6.10
2019-03-27T11:34:57.770Z,6.97
2019-03-27T11:40:03.325Z,5.73
2019-03-27T11:46:21.096Z,8.67
2019-03-27T11:51:32.483Z,5.30
2019-03-27T11:56:37.940Z,6.00
2019-03-27T12:01:44.005Z,4.47
2019-03-27T12:12:30.539Z,5.17
2019-03-27T12:17:38.472Z,7.50
2019-03-27T12:23:05.809Z,6.97
2019-03-27T12:28:19.877Z,7.23
2019-03-27T12:33:39.844Z,8.07
2019-03-27T12:38:51.236Z,6.67
2019-03-27T12:43:56.384Z,6.20
2019-03-27T12:49:01.623Z,7.17
2019-03-27T12:54:07.127Z,9.60
2019-03-27T12:59:12.391Z,6.00
2019-03-27T13:04:17.640Z,3.57
2019-03-27T13:09:23.004Z,4.83
2019-03-27T13:14:28.187Z,3.90
2019-03-27T13:19:33.209Z,5.20
2019-03-27T13:24:38.084Z,4.87
2019-03-27T13:29:43.034Z,7.40
2019-03-27T13:34:48.100Z,5.70
2019-03-27T13:39:53.253Z,8.20
2019-03-27T13:44:58.197Z,5.17
2019-03-27T13:50:03.235Z,3.77
2019-03-27T13:55:10.931Z,4.37
2019-03-27T14:00:17.897Z,5.07
2019-03-27T14:05:22.933Z,4.07
2019-03-27T14:10:28.549Z,4.47
2019-03-27T14:15:34.023Z,4.17
2019-03-27T14:20:39.163Z,6.07
2019-03-27T14:25:44.112Z,7.20
2019-03-27T14:30:56.644Z,4.37
2019-03-27T14:36:01.992Z,7.40
2019-03-27T14:41:07.129Z,7.70
2019-03-27T14:46:12.339Z,8.30
2019-03-27T14:51:17.472Z,7.77
2019-03-27T14:56:22.582Z,7.70
2019-03-27T15:01:27.733Z,8.87
2019-03-27T15:06:32.927Z,8.17
2019-03-27T15:11:57.479Z,8.80
2019-03-27T15:17:02.563Z,10.77
2019-03-27T15:22:21.386Z,9.53
2019-03-27T15:27:14.766Z,9.80
2019-03-27T15:32:19.763Z,11.93
2019-03-27T15:37:24.772Z,18.40
2019-03-27T15:42:29.768Z,10.50
2019-03-27T15:47:35.070Z,12.70
2019-03-27T15:52:40.218Z,14.63
2019-03-27T15:57:45.531Z,12.83
2019-03-27T16:02:50.692Z,14.80
2019-03-27T16:07:55.681Z,10.73
2019-03-27T16:13:01.040Z,10.50
2019-03-27T16:18:07.409Z,11.80
2019-03-27T16:23:12.910Z,17.40
2019-03-27T16:28:18.233Z,13.13
2019-03-27T16:33:23.210Z,14.93
2019-03-27T16:38:28.640Z,17.40
2019-03-27T16:43:33.639Z,12.77
2019-03-27T16:48:38.938Z,22.40
2019-03-27T16:53:44.250Z,17.50
2019-03-27T16:58:49.618Z,21.33
2019-03-27T17:03:54.969Z,18.37
2019-03-27T17:09:00.197Z,14.10
2019-03-27T17:14:06.141Z,18.93
2019-03-27T17:19:12.043Z,22.40
2019-03-27T17:24:17.197Z,23.27
2019-03-27T17:29:22.586Z,22.27
2019-03-27T17:34:28.216Z,21.50
2019-03-27T17:39:33.524Z,22.83
2019-03-27T17:44:38.900Z,15.00
2019-03-27T17:49:43.896Z,17.30
2019-03-27T17:54:49.195Z,22.77
2019-03-27T17:59:54.185Z,33.60
2019-03-27T18:04:59.169Z,26.07
2019-03-27T18:10:06.361Z,25.50
2019-03-27T18:15:30.704Z,23.23
2019-03-27T18:20:35.641Z,21.43
2019-03-27T18:25:40.582Z,16.23
2019-03-27T18:30:45.552Z,19.43
2019-03-27T18:35:50.491Z,14.33
2019-03-27T18:40:55.623Z,17.10
2019-03-27T18:46:01.087Z,13.77
2019-03-27T18:51:06.048Z,15.43
2019-03-27T18:56:10.982Z,16.03
2019-03-27T19:01:16.346Z,18.70
2019-03-27T19:06:21.613Z,26.03
2019-03-27T19:11:26.568Z,21.57
2019-03-27T19:16:31.739Z,20.40
2019-03-27T19:21:36.755Z,19.20
2019-03-27T19:26:41.760Z,27.80
2019-03-27T19:31:46.906Z,29.87
2019-03-27T19:36:52.050Z,30.90
2019-03-27T19:41:57.522Z,21.90
2019-03-27T19:47:03.120Z,21.37
2019-03-27T19:52:08.528Z,17.10
2019-03-27T19:57:13.589Z,15.03
2019-03-27T20:02:18.949Z,21.63
2019-03-27T20:07:35.277Z,13.73
2019-03-27T20:12:31.225Z,20.73
2019-03-27T20:17:36.998Z,19.00
2019-03-27T20:22:42.306Z,28.40
2019-03-27T20:27:47.242Z,19.30
2019-03-27T20:32:52.394Z,17.47
2019-03-27T20:37:57.384Z,18.23
2019-03-27T20:43:02.714Z,21.47
2019-03-27T20:48:07.620Z,19.80
2019-03-27T20:53:12.916Z,22.90
2019-03-27T20:58:18.038Z,19.00
2019-03-27T21:03:23.185Z,18.43
2019-03-27T21:08:28.329Z,19.00
2019-03-27T21:13:33.412Z,25.87
2019-03-27T21:18:38.369Z,22.70
2019-03-27T21:23:43.329Z,21.23
2019-03-27T21:28:48.488Z,21.60
2019-03-27T21:33:53.661Z,23.63
2019-03-27T21:38:58.765Z,29.03
2019-03-27T21:44:04.113Z,22.70
2019-03-27T21:49:09.529Z,20.93
2019-03-27T21:54:14.451Z,22.90
2019-03-27T21:59:19.526Z,26.20
2019-03-27T22:04:24.704Z,21.80
2019-03-27T22:09:29.872Z,30.07
2019-03-27T22:14:34.982Z,22.17
2019-03-27T22:19:40.097Z,23.67
2019-03-27T22:24:45.264Z,20.63
2019-03-27T22:29:50.471Z,17.97
2019-03-27T22:34:55.826Z,16.87
2019-03-27T22:40:01.000Z,20.67
2019-03-27T22:45:07.254Z,16.73
2019-03-27T22:50:13.029Z,21.50
2019-03-27T22:55:18.248Z,20.73
2019-03-27T23:00:24.768Z,23.33
2019-03-27T23:05:30.316Z,27.30
2019-03-27T23:10:35.675Z,26.43
2019-03-27T23:15:40.878Z,24.07
2019-03-27T23:20:47.723Z,23.17
2019-03-27T23:26:02.550Z,21.50
2019-03-27T23:30:59.822Z,22.13
2019-03-27T23:36:04.953Z,23.33
2019-03-27T23:41:10.170Z,23.37
2019-03-27T23:46:15.555Z,37.07
2019-03-27T23:51:21.006Z,42.40
2019-03-27T23:56:25.909Z,42.63
